Time,TemperatureF,DewpointF,PressureIn,WindDirection,WindDirectionDegrees,WindSpeedMPH,WindSpeedGustMPH,Humidity,HourlyPrecipIn,Conditions,Clouds,dailyrainin,SoftwareType,DateUTC
2013-12-04 00:02:00,66.9,66.6,29.83,South,175,2.0,2.0,99,0.00,,,0.00,Wunderground v.1.15,2013-12-04 06:02:00,
2013-12-04 00:08:00,67.0,66.7,29.82,SSW,192,2.0,2.0,99,0.00,,,0.00,Wunderground v.1.15,2013-12-04 06:08:00,
2013-12-04 00:17:00,67.0,66.7,29.82,SSW,198,1.0,2.0,99,0.00,,,0.00,Wunderground v.1.15,2013-12-04 06:17:00,
2013-12-04 00:22:00,67.1,66.8,29.83,SSW,197,0.0,0.0,99,0.00,,,0.00,Wunderground v.1.15,2013-12-04 06:22:00,
2013-12-04 00:27:00,67.1,66.8,29.82,South,178,0.0,1.0,99,0.00,,,0.00,Wunderground v.1.15,2013-12-04 06:27:00,
2013-12-04 00:32:00,67.1,66.8,29.83,South,191,1.0,1.0,99,0.00,,,0.00,Wunderground v.1.15,2013-12-04 06:32:00,
2013-12-04 00:37:00,67.2,66.9,29.83,South,188,1.0,1.0,99,0.00,,,0.00,Wunderground v.1.15,2013-12-04 06:37:00,
2013-12-04 00:43:00,67.2,66.9,29.83,SSW,210,1.0,1.0,99,0.00,,,0.00,Wunderground v.1.15,2013-12-04 06:43:00,
2013-12-04 00:48:00,67.2,66.9,29.83,South,184,1.0,1.0,99,0.00,,,0.00,Wunderground v.1.15,2013-12-04 06:48:00,
2013-12-04 00:53:00,67.2,66.9,29.83,South,187,1.0,1.0,99,0.00,,,0.00,Wunderground v.1.15,2013-12-04 06:53:00,
2013-12-04 00:58:00,67.2,66.9,29.84,South,187,1.0,1.0,99,0.00,,,0.00,Wunderground v.1.15,2013-12-04 06:58:00,
2013-12-04 01:03:00,67.2,66.9,29.83,South,187,0.0,0.0,99,0.00,,,0.00,Wunderground v.1.15,2013-12-04 07:03:00,
2013-12-04 01:08:00,67.2,66.9,29.84,South,187,0.0,0.0,99,0.00,,,0.00,Wunderground v.1.15,2013-12-04 07:08:00,
2013-12-04 01:13:00,67.3,67.0,29.84,South,187,0.0,0.0,99,0.00,,,0.00,Wunderground v.1.15,2013-12-04 07:13:00,
2013-12-04 01:23:00,67.3,67.0,29.84,South,187,0.0,0.0,99,0.00,,,0.00,Wunderground v.1.15,2013-12-04 07:23:00,
2013-12-04 01:28:00,67.4,67.1,29.84,South,186,0.0,0.0,99,0.00,,,0.00,Wunderground v.1.15,2013-12-04 07:28:00,
2013-12-04 01:33:00,67.4,67.1,29.84,South,186,0.0,0.0,99,0.00,,,0.00,Wunderground v.1.15,2013-12-04 07:33:00,
2013-12-04 01:38:00,67.4,67.1,29.84,South,186,0.0,0.0,99,0.00,,,0.00,Wunderground v.1.15,2013-12-04 07:38:00,
2013-12-04 01:43:00,67.5,67.2,29.84,South,186,0.0,0.0,99,0.00,,,0.00,Wunderground v.1.15,2013-12-04 07:43:00,
2013-12-04 01:53:00,67.5,67.2,29.84,South,173,1.0,1.0,99,0.00,,,0.00,Wunderground v.1.15,2013-12-04 07:53:00,
2013-12-04 01:58:00,67.5,67.2,29.84,South,174,1.0,2.0,99,0.00,,,0.00,Wunderground v.1.15,2013-12-04 07:58:00,
2013-12-04 02:03:00,67.5,67.2,29.84,South,174,0.0,0.0,99,0.00,,,0.00,Wunderground v.1.15,2013-12-04 08:03:00,
2013-12-04 02:12:00,67.3,67.0,29.85,South,173,0.0,0.0,99,0.00,,,0.00,Wunderground v.1.15,2013-12-04 08:12:00,
2013-12-04 02:17:00,67.2,66.9,29.84,South,173,0.0,0.0,99,0.00,,,0.00,Wunderground v.1.15,2013-12-04 08:17:00,
2013-12-04 02:23:00,67.1,66.8,29.84,South,173,0.0,0.0,99,0.00,,,0.00,Wunderground v.1.15,2013-12-04 08:23:00,
2013-12-04 02:33:00,66.9,66.6,29.84,South,173,0.0,0.0,99,0.00,,,0.00,Wunderground v.1.15,2013-12-04 08:33:00,
2013-12-04 02:38:00,66.9,66.6,29.84,South,181,0.0,0.0,99,0.00,,,0.00,Wunderground v.1.15,2013-12-04 08:38:00,
2013-12-04 02:43:00,66.8,66.5,29.84,South,181,0.0,0.0,99,0.00,,,0.00,Wunderground v.1.15,2013-12-04 08:43:00,
2013-12-04 02:48:00,66.8,66.5,29.84,South,181,0.0,0.0,99,0.00,,,0.00,Wunderground v.1.15,2013-12-04 08:48:00,
2013-12-04 02:58:00,66.8,66.5,29.84,South,180,0.0,1.0,99,0.00,,,0.00,Wunderground v.1.15,2013-12-04 08:58:00,
2013-12-04 03:03:00,66.8,66.5,29.84,South,181,0.0,0.0,99,0.00,,,0.00,Wunderground v.1.15,2013-12-04 09:03:00,
2013-12-04 03:12:00,66.8,66.5,29.84,South,181,0.0,0.0,99,0.00,,,0.00,Wunderground v.1.15,2013-12-04 09:12:00,
2013-12-04 03:17:00,66.7,66.4,29.85,South,181,0.0,0.0,99,0.00,,,0.00,Wunderground v.1.15,2013-12-04 09:17:00,
2013-12-04 03:22:00,66.7,66.4,29.84,South,181,0.0,0.0,99,0.00,,,0.00,Wunderground v.1.15,2013-12-04 09:22:00,
2013-12-04 03:28:00,66.7,66.4,29.84,South,181,0.0,0.0,99,0.00,,,0.00,Wunderground v.1.15,2013-12-04 09:28:00,
2013-12-04 03:33:00,66.7,66.4,29.85,South,181,0.0,0.0,99,0.00,,,0.00,Wunderground v.1.15,2013-12-04 09:33:00,
2013-12-04 03:38:00,66.7,66.4,29.85,South,181,0.0,0.0,99,0.00,,,0.00,Wunderground v.1.15,2013-12-04 09:38:00,
2013-12-04 03:43:00,66.7,66.4,29.85,South,181,0.0,0.0,99,0.00,,,0.00,Wunderground v.1.15,2013-12-04 09:43:00,
2013-12-04 03:47:00,66.7,66.4,29.85,South,181,0.0,0.0,99,0.00,,,0.00,Wunderground v.1.15,2013-12-04 09:47:00,
2013-12-04 03:52:00,66.6,66.3,29.85,South,180,0.0,0.0,99,0.00,,,0.00,Wunderground v.1.15,2013-12-04 09:52:00,
2013-12-04 04:02:00,66.7,66.4,29.85,South,182,0.0,0.0,99,0.00,,,0.00,Wunderground v.1.15,2013-12-04 10:02:00,
2013-12-04 04:08:00,66.7,66.4,29.85,South,182,0.0,0.0,99,0.00,,,0.00,Wunderground v.1.15,2013-12-04 10:08:00,
2013-12-04 04:12:00,66.8,66.5,29.85,South,182,0.0,0.0,99,0.00,,,0.00,Wunderground v.1.15,2013-12-04 10:12:00,
2013-12-04 04:17:00,66.8,66.5,29.84,South,182,0.0,0.0,99,0.00,,,0.00,Wunderground v.1.15,2013-12-04 10:17:00,
2013-12-04 04:22:00,66.8,66.5,29.84,South,182,0.0,0.0,99,0.00,,,0.00,Wunderground v.1.15,2013-12-04 10:22:00,
2013-12-04 04:32:00,66.9,66.6,29.85,South,182,0.0,0.0,99,0.00,,,0.00,Wunderground v.1.15,2013-12-04 10:32:00,
2013-12-04 04:37:00,66.9,66.6,29.85,South,182,0.0,1.0,99,0.00,,,0.00,Wunderground v.1.15,2013-12-04 10:37:00,
2013-12-04 04:42:00,66.9,66.6,29.85,SE,144,1.0,1.0,99,0.00,,,0.00,Wunderground v.1.15,2013-12-04 10:42:00,
2013-12-04 04:47:00,66.9,66.6,29.85,South,176,1.0,2.0,99,0.00,,,0.00,Wunderground v.1.15,2013-12-04 10:47:00,
2013-12-04 04:57:00,66.9,66.6,29.85,South,177,0.0,1.0,99,0.00,,,0.00,Wunderground v.1.15,2013-12-04 10:57:00,
2013-12-04 05:03:00,67.0,66.7,29.85,ESE,116,0.0,2.0,99,0.00,,,0.00,Wunderground v.1.15,2013-12-04 11:03:00,
2013-12-04 05:12:00,67.0,66.7,29.85,ESE,116,1.0,1.0,99,0.00,,,0.00,Wunderground v.1.15,2013-12-04 11:12:00,
2013-12-04 05:17:00,67.1,66.8,29.85,SW,215,0.0,3.0,99,0.00,,,0.00,Wunderground v.1.15,2013-12-04 11:17:00,
2013-12-04 05:22:00,67.2,66.9,29.85,SW,215,0.0,0.0,99,0.00,,,0.00,Wunderground v.1.15,2013-12-04 11:22:00,
2013-12-04 05:27:00,67.2,66.9,29.85,SE,144,0.0,0.0,99,0.00,,,0.00,Wunderground v.1.15,2013-12-04 11:27:00,
2013-12-04 05:37:00,67.3,67.0,29.85,SE,145,0.0,0.0,99,0.00,,,0.00,Wunderground v.1.15,2013-12-04 11:37:00,
2013-12-04 05:43:00,67.3,67.0,29.86,SE,145,0.0,0.0,99,0.00,,,0.00,Wunderground v.1.15,2013-12-04 11:43:00,
2013-12-04 05:47:00,67.4,67.4,29.86,SE,146,0.0,0.0,100,0.00,,,0.00,Wunderground v.1.15,2013-12-04 11:47:00,
2013-12-04 05:52:00,67.5,67.5,29.85,SE,145,0.0,0.0,100,0.00,,,0.00,Wunderground v.1.15,2013-12-04 11:52:00,
2013-12-04 05:57:00,67.4,67.4,29.86,SE,146,0.0,1.0,100,0.00,,,0.00,Wunderground v.1.15,2013-12-04 11:57:00,
2013-12-04 06:07:00,67.3,67.0,29.86,SSW,195,1.0,1.0,99,0.00,,,0.00,Wunderground v.1.15,2013-12-04 12:07:00,
2013-12-04 06:12:00,67.2,66.9,29.87,SSW,194,1.0,1.0,99,0.00,,,0.00,Wunderground v.1.15,2013-12-04 12:12:00,
2013-12-04 06:17:00,67.2,66.9,29.86,South,188,1.0,2.0,99,0.00,,,0.00,Wunderground v.1.15,2013-12-04 12:17:00,
2013-12-04 06:22:00,67.2,66.9,29.86,SSE,156,1.0,1.0,99,0.00,,,0.00,Wunderground v.1.15,2013-12-04 12:22:00,
2013-12-04 06:27:00,67.3,67.0,29.87,SSE,156,1.0,1.0,99,0.00,,,0.00,Wunderground v.1.15,2013-12-04 12:27:00,
2013-12-04 06:32:00,67.3,67.0,29.87,SSE,156,0.0,0.0,99,0.00,,,0.00,Wunderground v.1.15,2013-12-04 12:32:00,
2013-12-04 06:43:00,67.3,67.0,29.87,SE,144,1.0,1.0,99,0.00,,,0.00,Wunderground v.1.15,2013-12-04 12:43:00,
2013-12-04 06:48:00,67.3,67.0,29.88,SE,144,1.0,1.0,99,0.00,,,0.00,Wunderground v.1.15,2013-12-04 12:48:00,
2013-12-04 06:53:00,67.3,67.0,29.88,SE,144,0.0,1.0,99,0.00,,,0.00,Wunderground v.1.15,2013-12-04 12:53:00,
2013-12-04 06:58:00,67.4,67.1,29.88,SE,144,1.0,1.0,99,0.00,,,0.00,Wunderground v.1.15,2013-12-04 12:58:00,
2013-12-04 07:03:00,67.4,67.1,29.88,SE,144,1.0,1.0,99,0.00,,,0.00,Wunderground v.1.15,2013-12-04 13:03:00,
2013-12-04 07:08:00,67.4,67.1,29.88,SE,144,1.0,1.0,99,0.00,,,0.00,Wunderground v.1.15,2013-12-04 13:08:00,
2013-12-04 07:13:00,67.4,67.1,29.89,South,187,0.0,0.0,99,0.00,,,0.00,Wunderground v.1.15,2013-12-04 13:13:00,
2013-12-04 07:23:00,67.5,67.5,29.89,South,187,0.0,0.0,100,0.00,,,0.00,Wunderground v.1.15,2013-12-04 13:23:00,
2013-12-04 07:28:00,67.5,67.5,29.89,South,187,0.0,0.0,100,0.00,,,0.00,Wunderground v.1.15,2013-12-04 13:28:00,
2013-12-04 07:33:00,67.5,67.5,29.89,South,187,0.0,1.0,100,0.00,,,0.00,Wunderground v.1.15,2013-12-04 13:33:00,
2013-12-04 07:43:00,67.7,67.7,29.90,South,187,1.0,1.0,100,0.00,,,0.00,Wunderground v.1.15,2013-12-04 13:43:00,
2013-12-04 07:53:00,67.8,67.8,29.90,South,179,0.0,0.0,100,0.00,,,0.00,Wunderground v.1.15,2013-12-04 13:53:00,
2013-12-04 07:58:00,67.8,67.8,29.90,South,179,0.0,0.0,100,0.00,,,0.00,Wunderground v.1.15,2013-12-04 13:58:00,
2013-12-04 08:03:00,67.9,67.9,29.91,South,179,0.0,0.0,100,0.00,,,0.00,Wunderground v.1.15,2013-12-04 14:03:00,
2013-12-04 08:08:00,68.0,68.0,29.91,South,179,0.0,0.0,100,0.00,,,0.00,Wunderground v.1.15,2013-12-04 14:08:00,
2013-12-04 08:13:00,68.2,68.2,29.91,South,179,0.0,0.0,100,0.00,,,0.00,Wunderground v.1.15,2013-12-04 14:13:00,
2013-12-04 08:18:00,68.3,68.3,29.91,South,179,0.0,0.0,100,0.00,,,0.00,Wunderground v.1.15,2013-12-04 14:18:00,
2013-12-04 08:28:00,68.6,68.6,29.92,South,178,0.0,0.0,100,0.00,,,0.00,Wunderground v.1.15,2013-12-04 14:28:00,
2013-12-04 08:33:00,68.7,68.7,29.92,South,178,0.0,0.0,100,0.00,,,0.00,Wunderground v.1.15,2013-12-04 14:33:00,
2013-12-04 08:38:00,68.8,68.8,29.92,South,178,0.0,0.0,100,0.00,,,0.00,Wunderground v.1.15,2013-12-04 14:38:00,
2013-12-04 08:48:00,69.1,69.1,29.92,South,182,0.0,1.0,100,0.00,,,0.00,Wunderground v.1.15,2013-12-04 14:48:00,
2013-12-04 08:52:00,69.3,69.3,29.93,South,182,0.0,2.0,100,0.00,,,0.00,Wunderground v.1.15,2013-12-04 14:52:00,
2013-12-04 08:57:00,69.3,69.3,29.93,South,184,0.0,2.0,100,0.00,,,0.00,Wunderground v.1.15,2013-12-04 14:57:00,
2013-12-04 09:08:00,69.4,69.4,29.94,South,184,0.0,1.0,100,0.00,,,0.00,Wunderground v.1.15,2013-12-04 15:08:00,
2013-12-04 09:17:00,69.7,69.7,29.94,South,184,0.0,0.0,100,0.00,,,0.00,Wunderground v.1.15,2013-12-04 15:17:00,
2013-12-04 09:22:00,69.7,69.7,29.94,South,184,0.0,0.0,100,0.00,,,0.00,Wunderground v.1.15,2013-12-04 15:22:00,
2013-12-04 09:27:00,69.8,69.8,29.94,South,184,0.0,0.0,100,0.00,,,0.00,Wunderground v.1.15,2013-12-04 15:27:00,
2013-12-04 09:37:00,70.1,70.1,29.94,South,183,0.0,0.0,100,0.00,,,0.00,Wunderground v.1.15,2013-12-04 15:37:00,
2013-12-04 09:42:00,70.2,70.2,29.95,South,184,0.0,0.0,100,0.00,,,0.00,Wunderground v.1.15,2013-12-04 15:42:00,
2013-12-04 09:52:00,70.3,70.3,29.95,South,184,0.0,0.0,100,0.00,,,0.00,Wunderground v.1.15,2013-12-04 15:52:00,
2013-12-04 09:57:00,70.5,70.5,29.95,South,184,0.0,0.0,100,0.00,,,0.00,Wunderground v.1.15,2013-12-04 15:57:00,
2013-12-04 10:07:00,70.9,70.9,29.95,South,185,0.0,0.0,100,0.00,,,0.00,Wunderground v.1.15,2013-12-04 16:07:00,
2013-12-04 10:12:00,71.3,71.3,29.95,South,185,0.0,0.0,100,0.00,,,0.00,Wunderground v.1.15,2013-12-04 16:12:00,
2013-12-04 10:22:00,71.3,71.3,29.95,SSW,211,0.0,0.0,100,0.00,,,0.00,Wunderground v.1.15,2013-12-04 16:22:00,
2013-12-04 10:32:00,71.0,71.0,29.94,SSW,192,2.0,2.0,100,0.00,,,0.00,Wunderground v.1.15,2013-12-04 16:32:00,
2013-12-04 10:37:00,71.3,71.3,29.94,SSW,192,2.0,2.0,100,0.00,,,0.00,Wunderground v.1.15,2013-12-04 16:37:00,
2013-12-04 10:42:00,71.5,71.2,29.94,SE,145,2.0,2.0,99,0.00,,,0.00,Wunderground v.1.15,2013-12-04 16:42:00,
2013-12-04 10:52:00,72.0,71.7,29.93,SSW,210,2.0,2.0,99,0.00,,,0.00,Wunderground v.1.15,2013-12-04 16:52:00,
2013-12-04 10:57:00,72.1,71.5,29.93,SSW,203,1.0,2.0,98,0.00,,,0.00,Wunderground v.1.15,2013-12-04 16:57:00,
2013-12-04 11:02:00,72.2,71.3,29.92,SSW,192,1.0,2.0,97,0.00,,,0.00,Wunderground v.1.15,2013-12-04 17:02:00,
2013-12-04 11:12:00,72.7,71.5,29.92,SSW,206,1.0,1.0,96,0.00,,,0.00,Wunderground v.1.15,2013-12-04 17:12:00,
2013-12-04 11:17:00,73.0,71.5,29.92,SSW,201,1.0,1.0,95,0.00,,,0.00,Wunderground v.1.15,2013-12-04 17:17:00,
2013-12-04 11:22:00,73.1,71.3,29.92,South,185,2.0,2.0,94,0.00,,,0.00,Wunderground v.1.15,2013-12-04 17:22:00,
2013-12-04 11:32:00,73.7,71.9,29.91,SSW,196,1.0,1.0,94,0.00,,,0.00,Wunderground v.1.15,2013-12-04 17:32:00,
2013-12-04 11:37:00,74.1,71.9,29.91,SW,217,0.0,1.0,93,0.00,,,0.00,Wunderground v.1.15,2013-12-04 17:37:00,
2013-12-04 11:43:00,74.4,71.6,29.91,South,187,1.0,3.0,91,0.00,,,0.00,Wunderground v.1.15,2013-12-04 17:43:00,
2013-12-04 11:48:00,74.4,71.3,29.91,SSW,192,3.0,3.0,90,0.00,,,0.00,Wunderground v.1.15,2013-12-04 17:48:00,
2013-12-04 11:57:00,74.7,71.2,29.90,SSW,207,2.0,5.0,89,0.00,,,0.00,Wunderground v.1.15,2013-12-04 17:57:00,
2013-12-04 12:02:00,75.2,71.7,29.90,SSW,208,2.0,2.0,89,0.00,,,0.00,Wunderground v.1.15,2013-12-04 18:02:00,
2013-12-04 12:12:00,75.4,71.3,29.89,SSW,194,1.0,1.0,87,0.00,,,0.00,Wunderground v.1.15,2013-12-04 18:12:00,
2013-12-04 12:17:00,75.3,71.2,29.89,SSW,213,1.0,1.0,87,0.00,,,0.00,Wunderground v.1.15,2013-12-04 18:17:00,
2013-12-04 12:27:00,75.8,71.3,29.89,South,190,1.0,2.0,86,0.00,,,0.00,Wunderground v.1.15,2013-12-04 18:27:00,
2013-12-04 12:32:00,75.6,71.1,29.88,SSW,192,2.0,3.0,86,0.00,,,0.00,Wunderground v.1.15,2013-12-04 18:32:00,
2013-12-04 12:38:00,75.7,71.6,29.88,SSW,196,2.0,3.0,87,0.00,,,0.00,Wunderground v.1.15,2013-12-04 18:38:00,
2013-12-04 12:43:00,76.2,71.4,29.88,SSW,213,2.0,2.0,85,0.00,,,0.00,Wunderground v.1.15,2013-12-04 18:43:00,
2013-12-04 12:53:00,75.9,71.1,29.87,SSW,195,2.0,2.0,85,0.00,,,0.00,Wunderground v.1.15,2013-12-04 18:53:00,
2013-12-04 12:58:00,75.8,71.0,29.87,SSW,211,1.0,2.0,85,0.00,,,0.00,Wunderground v.1.15,2013-12-04 18:58:00,
2013-12-04 13:03:00,75.8,71.0,29.87,SSW,210,1.0,1.0,85,0.00,,,0.00,Wunderground v.1.15,2013-12-04 19:03:00,
2013-12-04 13:08:00,75.8,71.3,29.87,SSW,207,1.0,2.0,86,0.00,,,0.00,Wunderground v.1.15,2013-12-04 19:08:00,
2013-12-04 13:13:00,75.9,70.7,29.87,SSW,192,1.0,2.0,84,0.00,,,0.00,Wunderground v.1.15,2013-12-04 19:13:00,
2013-12-04 13:18:00,76.0,70.8,29.87,South,190,2.0,2.0,84,0.00,,,0.00,Wunderground v.1.15,2013-12-04 19:18:00,
2013-12-04 13:23:00,76.2,71.0,29.87,SSW,205,2.0,2.0,84,0.00,,,0.00,Wunderground v.1.15,2013-12-04 19:23:00,
2013-12-04 13:32:00,76.5,70.6,29.86,South,182,2.0,3.0,82,0.00,,,0.00,Wunderground v.1.15,2013-12-04 19:32:00,
2013-12-04 13:38:00,76.2,70.7,29.86,South,186,2.0,3.0,83,0.00,,,0.00,Wunderground v.1.15,2013-12-04 19:38:00,
2013-12-04 13:43:00,76.0,70.8,29.86,South,187,1.0,1.0,84,0.00,,,0.00,Wunderground v.1.15,2013-12-04 19:43:00,
2013-12-04 13:48:00,76.2,71.0,29.86,South,183,1.0,3.0,84,0.00,,,0.00,Wunderground v.1.15,2013-12-04 19:48:00,
2013-12-04 13:53:00,76.5,71.3,29.86,SW,214,2.0,2.0,84,0.00,,,0.00,Wunderground v.1.15,2013-12-04 19:53:00,
2013-12-04 14:03:00,76.1,70.9,29.86,SSW,196,1.0,1.0,84,0.00,,,0.00,Wunderground v.1.15,2013-12-04 20:03:00,
2013-12-04 14:08:00,75.8,70.6,29.86,SSW,200,2.0,2.0,84,0.00,,,0.00,Wunderground v.1.15,2013-12-04 20:08:00,
2013-12-04 14:13:00,75.7,70.9,29.86,South,191,1.0,1.0,85,0.00,,,0.00,Wunderground v.1.15,2013-12-04 20:13:00,
2013-12-04 14:23:00,76.0,70.5,29.86,SSW,210,2.0,2.0,83,0.00,,,0.00,Wunderground v.1.15,2013-12-04 20:23:00,
2013-12-04 14:33:00,75.9,71.1,29.86,South,190,1.0,3.0,85,0.00,,,0.00,Wunderground v.1.15,2013-12-04 20:33:00,
2013-12-04 14:38:00,75.6,70.8,29.86,SSW,201,1.0,3.0,85,0.00,,,0.00,Wunderground v.1.15,2013-12-04 20:38:00,
2013-12-04 14:43:00,75.4,70.9,29.86,SSW,200,1.0,1.0,86,0.00,,,0.00,Wunderground v.1.15,2013-12-04 20:43:00,
2013-12-04 14:48:00,75.6,71.1,29.85,SSW,203,0.0,2.0,86,0.00,,,0.00,Wunderground v.1.15,2013-12-04 20:48:00,
2013-12-04 14:53:00,75.6,71.1,29.85,South,184,1.0,1.0,86,0.00,,,0.00,Wunderground v.1.15,2013-12-04 20:53:00,
2013-12-04 15:02:00,75.4,71.3,29.85,SSW,193,0.0,1.0,87,0.00,,,0.00,Wunderground v.1.15,2013-12-04 21:02:00,
2013-12-04 15:08:00,75.1,71.3,29.85,South,180,1.0,1.0,88,0.00,,,0.00,Wunderground v.1.15,2013-12-04 21:08:00,
2013-12-04 15:13:00,74.8,71.0,29.85,SW,217,1.0,1.0,88,0.00,,,0.00,Wunderground v.1.15,2013-12-04 21:13:00,
2013-12-04 15:18:00,74.6,70.8,29.85,South,188,1.0,2.0,88,0.00,,,0.00,Wunderground v.1.15,2013-12-04 21:18:00,
2013-12-04 15:27:00,74.1,71.0,29.85,South,190,1.0,1.0,90,0.00,,,0.00,Wunderground v.1.15,2013-12-04 21:27:00,
2013-12-04 15:37:00,73.9,70.8,29.85,South,190,0.0,1.0,90,0.00,,,0.00,Wunderground v.1.15,2013-12-04 21:37:00,
2013-12-04 15:42:00,73.8,71.0,29.85,South,188,0.0,0.0,91,0.00,,,0.00,Wunderground v.1.15,2013-12-04 21:42:00,
2013-12-04 15:47:00,73.6,70.8,29.85,SSE,148,1.0,2.0,91,0.00,,,0.00,Wunderground v.1.15,2013-12-04 21:47:00,
2013-12-04 15:57:00,73.3,70.8,29.86,South,185,1.0,1.0,92,0.00,,,0.00,Wunderground v.1.15,2013-12-04 21:57:00,
2013-12-04 16:02:00,73.2,70.7,29.86,South,190,1.0,2.0,92,0.00,,,0.00,Wunderground v.1.15,2013-12-04 22:02:00,
2013-12-04 16:07:00,73.1,70.6,29.86,SSE,168,1.0,2.0,92,0.00,,,0.00,Wunderground v.1.15,2013-12-04 22:07:00,
2013-12-04 16:12:00,73.1,71.0,29.86,South,182,0.0,0.0,93,0.00,,,0.00,Wunderground v.1.15,2013-12-04 22:12:00,
2013-12-04 16:17:00,73.0,70.9,29.86,South,182,0.0,0.0,93,0.00,,,0.00,Wunderground v.1.15,2013-12-04 22:17:00,
2013-12-04 16:27:00,72.8,70.7,29.86,SSW,198,1.0,1.0,93,0.00,,,0.00,Wunderground v.1.15,2013-12-04 22:27:00,
2013-12-04 16:32:00,72.6,70.8,29.86,SSW,207,0.0,0.0,94,0.00,,,0.00,Wunderground v.1.15,2013-12-04 22:32:00,
2013-12-04 16:37:00,72.5,70.7,29.86,SE,130,0.0,0.0,94,0.00,,,0.00,Wunderground v.1.15,2013-12-04 22:37:00,
2013-12-04 16:47:00,72.0,70.5,29.86,South,178,1.0,1.0,95,0.00,,,0.00,Wunderground v.1.15,2013-12-04 22:47:00,
2013-12-04 16:52:00,71.7,70.2,29.86,SSW,210,1.0,1.0,95,0.00,,,0.00,Wunderground v.1.15,2013-12-04 22:52:00,
2013-12-04 16:57:00,71.5,70.0,29.86,NE,51,1.0,1.0,95,0.00,,,0.00,Wunderground v.1.15,2013-12-04 22:57:00,
2013-12-04 17:02:00,71.2,70.0,29.86,SSW,209,1.0,1.0,96,0.00,,,0.00,Wunderground v.1.15,2013-12-04 23:02:00,
2013-12-04 17:12:00,70.8,69.6,29.86,SSW,202,0.0,0.0,96,0.00,,,0.00,Wunderground v.1.15,2013-12-04 23:12:00,
2013-12-04 17:17:00,70.6,69.4,29.86,SSW,202,0.0,0.0,96,0.00,,,0.00,Wunderground v.1.15,2013-12-04 23:17:00,
2013-12-04 17:22:00,70.3,69.1,29.86,South,178,0.0,0.0,96,0.00,,,0.00,Wunderground v.1.15,2013-12-04 23:22:00,
2013-12-04 17:27:00,70.1,68.9,29.86,SSW,200,1.0,3.0,96,0.00,,,0.00,Wunderground v.1.15,2013-12-04 23:27:00,
2013-12-04 17:32:00,69.9,68.7,29.86,South,185,1.0,1.0,96,0.00,,,0.00,Wunderground v.1.15,2013-12-04 23:32:00,
2013-12-04 17:37:00,69.7,68.5,29.86,South,185,0.0,1.0,96,0.00,,,0.00,Wunderground v.1.15,2013-12-04 23:37:00,
2013-12-04 17:43:00,69.4,68.2,29.87,South,188,0.0,0.0,96,0.00,,,0.00,Wunderground v.1.15,2013-12-04 23:43:00,
2013-12-04 17:48:00,69.2,68.0,29.87,South,173,0.0,0.0,96,0.00,,,0.00,Wunderground v.1.15,2013-12-04 23:48:00,
2013-12-04 17:58:00,69.0,68.1,29.88,South,173,0.0,0.0,97,0.00,,,0.00,Wunderground v.1.15,2013-12-04 23:58:00,
2013-12-04 18:03:00,69.0,68.1,29.87,South,182,0.0,0.0,97,0.00,,,0.00,Wunderground v.1.15,2013-12-05 00:03:00,
2013-12-04 18:12:00,69.0,68.1,29.88,SSW,212,0.0,0.0,97,0.00,,,0.00,Wunderground v.1.15,2013-12-05 00:12:00,
2013-12-04 18:17:00,68.9,68.0,29.88,SSW,210,0.0,0.0,97,0.00,,,0.00,Wunderground v.1.15,2013-12-05 00:17:00,
2013-12-04 18:22:00,68.9,68.0,29.88,SSW,206,0.0,0.0,97,0.00,,,0.00,Wunderground v.1.15,2013-12-05 00:22:00,
2013-12-04 18:27:00,68.9,68.0,29.88,ESE,106,0.0,0.0,97,0.00,,,0.00,Wunderground v.1.15,2013-12-05 00:27:00,
2013-12-04 18:32:00,68.8,67.9,29.88,SE,125,0.0,0.0,97,0.00,,,0.00,Wunderground v.1.15,2013-12-05 00:32:00,
2013-12-04 18:38:00,68.8,67.9,29.88,SSW,192,0.0,1.0,97,0.00,,,0.00,Wunderground v.1.15,2013-12-05 00:38:00,
2013-12-04 18:48:00,68.9,68.0,29.88,SSW,198,0.0,0.0,97,0.00,,,0.00,Wunderground v.1.15,2013-12-05 00:48:00,
2013-12-04 18:53:00,68.9,68.0,29.89,SSW,196,0.0,0.0,97,0.00,,,0.00,Wunderground v.1.15,2013-12-05 00:53:00,
2013-12-04 19:03:00,69.0,68.1,29.89,SSW,206,0.0,0.0,97,0.00,,,0.00,Wunderground v.1.15,2013-12-05 01:03:00,
2013-12-04 19:12:00,69.1,68.5,29.89,SSE,159,0.0,0.0,98,0.00,,,0.00,Wunderground v.1.15,2013-12-05 01:12:00,
2013-12-04 19:22:00,69.2,68.6,29.89,SSE,160,0.0,0.0,98,0.00,,,0.00,Wunderground v.1.15,2013-12-05 01:22:00,
2013-12-04 19:27:00,69.2,68.6,29.89,SSE,163,0.0,0.0,98,0.00,,,0.00,Wunderground v.1.15,2013-12-05 01:27:00,
2013-12-04 19:32:00,69.3,68.7,29.89,South,178,0.0,0.0,98,0.00,,,0.00,Wunderground v.1.15,2013-12-05 01:32:00,
2013-12-04 19:38:00,69.3,68.7,29.90,South,186,0.0,0.0,98,0.00,,,0.00,Wunderground v.1.15,2013-12-05 01:38:00,
2013-12-04 19:43:00,69.4,68.8,29.89,South,190,0.0,0.0,98,0.00,,,0.00,Wunderground v.1.15,2013-12-05 01:43:00,
2013-12-04 19:48:00,69.4,68.8,29.90,SE,131,0.0,0.0,98,0.00,,,0.00,Wunderground v.1.15,2013-12-05 01:48:00,
2013-12-04 19:53:00,69.5,68.9,29.90,SSW,205,0.0,1.0,98,0.00,,,0.00,Wunderground v.1.15,2013-12-05 01:53:00,
2013-12-04 19:58:00,69.5,68.9,29.90,SSW,205,0.0,1.0,98,0.00,,,0.00,Wunderground v.1.15,2013-12-05 01:58:00,
2013-12-04 20:03:00,69.6,69.0,29.91,SSE,156,0.0,0.0,98,0.00,,,0.00,Wunderground v.1.15,2013-12-05 02:03:00,
2013-12-04 20:13:00,69.7,69.1,29.91,SSE,156,0.0,0.0,98,0.00,,,0.00,Wunderground v.1.15,2013-12-05 02:13:00,
2013-12-04 20:22:00,69.7,69.1,29.91,SSW,205,0.0,0.0,98,0.00,,,0.00,Wunderground v.1.15,2013-12-05 02:22:00,
2013-12-04 20:27:00,69.8,69.5,29.91,SSW,213,0.0,0.0,99,0.00,,,0.00,Wunderground v.1.15,2013-12-05 02:27:00,
2013-12-04 20:32:00,69.7,69.4,29.91,South,178,0.0,2.0,99,0.00,,,0.00,Wunderground v.1.15,2013-12-05 02:32:00,
2013-12-04 20:38:00,69.7,69.4,29.92,SSE,167,0.0,2.0,99,0.00,,,0.00,Wunderground v.1.15,2013-12-05 02:38:00,
2013-12-04 20:43:00,69.7,69.4,29.92,SSE,167,0.0,0.0,99,0.00,,,0.00,Wunderground v.1.15,2013-12-05 02:43:00,
2013-12-04 20:53:00,69.7,69.4,29.92,SSW,202,0.0,0.0,99,0.00,,,0.00,Wunderground v.1.15,2013-12-05 02:53:00,
2013-12-04 20:58:00,69.7,69.4,29.92,SSW,202,0.0,0.0,99,0.00,,,0.00,Wunderground v.1.15,2013-12-05 02:58:00,
2013-12-04 21:03:00,69.6,69.3,29.93,SSW,202,0.0,0.0,99,0.00,,,0.00,Wunderground v.1.15,2013-12-05 03:03:00,
2013-12-04 21:12:00,69.6,69.3,29.93,SSW,202,0.0,0.0,99,0.00,,,0.00,Wunderground v.1.15,2013-12-05 03:12:00,
2013-12-04 21:17:00,69.6,69.3,29.93,SSW,202,0.0,0.0,99,0.00,,,0.00,Wunderground v.1.15,2013-12-05 03:17:00,
2013-12-04 21:23:00,69.5,69.2,29.92,SSW,202,0.0,0.0,99,0.00,,,0.00,Wunderground v.1.15,2013-12-05 03:23:00,
2013-12-04 21:28:00,69.5,69.2,29.92,SSW,202,0.0,0.0,99,0.00,,,0.00,Wunderground v.1.15,2013-12-05 03:28:00,
2013-12-04 21:33:00,69.5,69.2,29.93,SSW,202,0.0,0.0,99,0.00,,,0.00,Wunderground v.1.15,2013-12-05 03:33:00,
2013-12-04 21:38:00,69.4,69.1,29.92,SSW,200,0.0,0.0,99,0.00,,,0.00,Wunderground v.1.15,2013-12-05 03:38:00,
2013-12-04 21:43:00,69.4,69.1,29.92,SSW,200,0.0,0.0,99,0.00,,,0.00,Wunderground v.1.15,2013-12-05 03:43:00,
2013-12-04 21:48:00,69.4,69.1,29.92,SSW,200,0.0,0.0,99,0.00,,,0.00,Wunderground v.1.15,2013-12-05 03:48:00,
2013-12-04 21:57:00,69.4,69.1,29.93,SSW,202,0.0,0.0,99,0.00,,,0.00,Wunderground v.1.15,2013-12-05 03:57:00,
2013-12-04 22:02:00,69.3,69.0,29.93,SSW,202,0.0,0.0,99,0.00,,,0.00,Wunderground v.1.15,2013-12-05 04:02:00,
2013-12-04 22:08:00,69.3,69.0,29.93,SSW,202,0.0,1.0,99,0.00,,,0.00,Wunderground v.1.15,2013-12-05 04:08:00,
2013-12-04 22:13:00,69.3,69.0,29.93,SSW,202,0.0,0.0,99,0.00,,,0.00,Wunderground v.1.15,2013-12-05 04:13:00,
2013-12-04 22:18:00,69.4,69.1,29.93,SSW,201,0.0,0.0,99,0.00,,,0.00,Wunderground v.1.15,2013-12-05 04:18:00,
2013-12-04 22:22:00,69.4,69.1,29.94,SSW,201,0.0,0.0,99,0.00,,,0.00,Wunderground v.1.15,2013-12-05 04:22:00,
2013-12-04 22:32:00,69.3,69.0,29.94,SSW,201,0.0,0.0,99,0.00,,,0.00,Wunderground v.1.15,2013-12-05 04:32:00,
2013-12-04 22:37:00,69.2,68.9,29.94,SSW,200,0.0,0.0,99,0.00,,,0.00,Wunderground v.1.15,2013-12-05 04:37:00,
2013-12-04 22:42:00,69.2,68.9,29.94,SSW,201,0.0,0.0,99,0.00,,,0.00,Wunderground v.1.15,2013-12-05 04:42:00,
2013-12-04 22:47:00,69.2,68.9,29.94,SSW,201,0.0,0.0,99,0.00,,,0.00,Wunderground v.1.15,2013-12-05 04:47:00,
2013-12-04 22:52:00,69.2,68.9,29.94,SSW,201,0.0,0.0,99,0.00,,,0.00,Wunderground v.1.15,2013-12-05 04:52:00,
2013-12-04 23:02:00,69.1,68.8,29.94,SSW,201,0.0,0.0,99,0.00,,,0.00,Wunderground v.1.15,2013-12-05 05:02:00,
2013-12-04 23:07:00,69.2,68.9,29.94,SSW,201,0.0,0.0,99,0.00,,,0.00,Wunderground v.1.15,2013-12-05 05:07:00,
2013-12-04 23:12:00,69.2,68.9,29.94,SSW,201,0.0,0.0,99,0.00,,,0.00,Wunderground v.1.15,2013-12-05 05:12:00,
2013-12-04 23:17:00,69.2,68.9,29.94,SSW,200,0.0,0.0,99,0.00,,,0.00,Wunderground v.1.15,2013-12-05 05:17:00,
2013-12-04 23:22:00,69.2,68.9,29.94,SSW,200,0.0,0.0,99,0.00,,,0.00,Wunderground v.1.15,2013-12-05 05:22:00,
2013-12-04 23:27:00,69.2,68.9,29.94,SSW,201,0.0,0.0,99,0.00,,,0.00,Wunderground v.1.15,2013-12-05 05:27:00,
2013-12-04 23:38:00,69.2,68.9,29.94,SSW,200,0.0,0.0,99,0.00,,,0.00,Wunderground v.1.15,2013-12-05 05:38:00,
2013-12-04 23:43:00,69.2,68.9,29.94,SSW,201,0.0,0.0,99,0.00,,,0.00,Wunderground v.1.15,2013-12-05 05:43:00,
2013-12-04 23:48:00,69.2,68.9,29.94,SSW,201,0.0,0.0,99,0.00,,,0.00,Wunderground v.1.15,2013-12-05 05:48:00,
2013-12-04 23:52:00,69.2,68.9,29.94,SSW,194,0.0,0.0,99,0.00,,,0.00,Wunderground v.1.15,2013-12-05 05:52:00,
2013-12-04 23:57:00,69.2,68.9,29.94,SSW,194,0.0,0.0,99,0.00,,,0.00,Wunderground v.1.15,2013-12-05 05:57:00,